Time;durP1;ratioP1;P1;durP2;ratioP2;P2;SDS_P1;SDS_P2;PMS_P1;PMS_P2;Temp;Humidity;BMP_temperature;BMP_pressure;BME280_temperature;BME280_humidity;BME280_pressure;Samples;Min_cycle;Max_cycle;Signal;HPM_P1;HPM_P2
2021/11/13 00:03:04;;;;;;;49.60;23.70;;;;;;;7.51;78.51;100598.85;126756;1309;108729;-76
2021/11/13 00:06:10;;;;;;;48.80;23.20;;;;;;;7.54;78.45;100594.91;126687;1309;107537;-76
2021/11/13 00:09:16;;;;;;;51.60;24.30;;;;;;;7.58;78.67;100599.70;126636;1315;108238;-77
2021/11/13 00:12:22;;;;;;;47.90;22.10;;;;;;;7.59;78.49;100595.90;126693;1314;108243;-76
2021/11/13 00:15:28;;;;;;;45.90;21.30;;;;;;;7.59;78.53;100595.38;126848;1313;108870;-76
2021/11/13 00:18:35;;;;;;;49.00;22.10;;;;;;;7.56;78.86;100597.52;126775;1315;108837;-77
2021/11/13 00:21:41;;;;;;;46.00;20.00;;;;;;;7.53;78.49;100597.45;126483;1315;107684;-76
2021/11/13 00:24:46;;;;;;;44.10;20.70;;;;;;;7.50;78.54;100597.14;126857;1310;107808;-76
2021/11/13 00:27:51;;;;;;;43.00;19.70;;;;;;;7.52;78.76;100598.96;126794;1308;108671;-75
2021/11/13 00:30:57;;;;;;;40.20;19.20;;;;;;;7.56;78.52;100595.27;126571;1315;107790;-77
2021/11/13 00:34:03;;;;;;;44.80;21.20;;;;;;;7.59;78.68;100593.79;126502;1308;108796;-74
2021/11/13 00:37:08;;;;;;;48.30;20.60;;;;;;;7.59;78.69;100593.20;126486;1307;109025;-74
2021/11/13 00:40:16;;;;;;;42.70;18.40;;;;;;;7.58;79.06;100592.58;126701;1312;108791;-76
2021/11/13 00:43:22;;;;;;;48.00;21.40;;;;;;;7.58;78.93;100589.55;126850;1314;108939;-75
2021/11/13 00:46:28;;;;;;;49.10;22.60;;;;;;;7.60;78.89;100586.03;126764;1312;107710;-77
2021/11/13 00:49:35;;;;;;;47.80;22.60;;;;;;;7.60;79.13;100588.54;126944;1314;107886;-77
2021/11/13 00:52:42;;;;;;;44.00;19.30;;;;;;;7.60;79.18;100583.39;126508;1315;108757;-77
2021/11/13 00:55:47;;;;;;;37.50;17.10;;;;;;;7.56;78.92;100580.90;126643;1315;107878;-76
2021/11/13 00:58:53;;;;;;;40.00;17.80;;;;;;;7.55;79.06;100580.95;126885;1315;108900;-78
2021/11/13 01:01:59;;;;;;;37.90;18.40;;;;;;;7.55;78.96;100580.61;126670;1312;107611;-76
2021/11/13 01:05:06;;;;;;;39.20;19.60;;;;;;;7.56;78.82;100575.93;126730;1309;109005;-77
2021/11/13 01:08:11;;;;;;;36.60;17.10;;;;;;;7.57;78.97;100574.11;126707;1314;107713;-76
2021/11/13 01:11:18;;;;;;;29.20;15.40;;;;;;;7.55;78.94;100572.63;126841;1309;106013;-76
2021/11/13 01:14:24;;;;;;;33.40;15.70;;;;;;;7.52;78.70;100572.39;126509;1315;108735;-77
2021/11/13 01:17:29;;;;;;;30.40;14.70;;;;;;;7.47;78.87;100569.05;126691;1313;107831;-76
2021/11/13 01:20:36;;;;;;;32.40;15.10;;;;;;;7.46;79.12;100570.55;126914;1315;108739;-75
2021/11/13 01:23:42;;;;;;;31.90;15.10;;;;;;;7.47;78.75;100563.49;126946;1311;108736;-76
2021/11/13 01:26:47;;;;;;;32.00;15.50;;;;;;;7.47;78.77;100555.77;126789;1315;108479;-76
2021/11/13 01:29:53;;;;;;;29.00;15.00;;;;;;;7.46;78.72;100551.60;126489;1313;108860;-77
2021/11/13 01:33:03;;;;;;;30.40;15.00;;;;;;;7.39;78.89;100554.43;126774;1313;108672;-74
2021/11/13 01:36:09;;;;;;;27.40;13.60;;;;;;;7.31;78.89;100549.79;126619;1315;107924;-75
2021/11/13 01:39:15;;;;;;;27.40;13.30;;;;;;;7.24;78.80;100550.77;126527;1313;108732;-76
2021/11/13 01:42:25;;;;;;;30.60;14.60;;;;;;;7.20;78.88;100550.23;126528;1312;106805;-77
2021/11/13 01:45:30;;;;;;;32.50;15.50;;;;;;;7.16;78.72;100552.97;126429;1315;107921;-75
2021/11/13 01:48:36;;;;;;;32.00;15.90;;;;;;;7.15;78.83;100552.50;126643;1315;106280;-76
2021/11/13 01:51:45;;;;;;;28.60;15.10;;;;;;;7.13;78.60;100544.05;126673;1312;109383;-74
2021/11/13 01:54:51;;;;;;;30.30;14.80;;;;;;;7.10;78.74;100540.77;126793;1313;108841;-73
2021/11/13 01:58:01;;;;;;;33.20;14.40;;;;;;;7.02;78.78;100541.49;126816;1309;108719;-78
2021/11/13 02:01:07;;;;;;;29.00;13.60;;;;;;;6.95;78.46;100543.36;126753;1315;108811;-75
2021/11/13 02:04:12;;;;;;;34.30;16.50;;;;;;;6.95;78.72;100537.00;126742;1310;107872;-76
2021/11/13 02:07:19;;;;;;;32.50;15.40;;;;;;;6.94;78.78;100534.76;126692;1315;107803;-77
2021/11/13 02:10:26;;;;;;;32.80;15.70;;;;;;;6.92;78.46;100536.02;126840;1313;108297;-77
2021/11/13 02:13:31;;;;;;;32.60;15.80;;;;;;;6.93;78.50;100536.59;126801;1315;107921;-76
2021/11/13 02:16:37;;;;;;;30.90;13.40;;;;;;;6.95;78.78;100536.76;126475;1312;108649;-75
2021/11/13 02:19:50;;;;;;;27.20;13.30;;;;;;;6.94;78.54;100532.44;126791;1315;108778;-76
2021/11/13 02:22:57;;;;;;;29.80;13.90;;;;;;;6.97;78.55;100531.69;126839;1313;106061;-75
2021/11/13 02:26:03;;;;;;;31.00;14.40;;;;;;;7.01;78.57;100540.92;126630;1313;107860;-76
2021/11/13 02:29:08;;;;;;;27.30;13.50;;;;;;;7.00;78.46;100542.19;126847;1312;109829;-75
2021/11/13 02:32:14;;;;;;;25.90;13.00;;;;;;;7.00;78.40;100538.45;126936;1312;107667;-75
2021/11/13 02:35:20;;;;;;;27.20;13.00;;;;;;;6.99;78.46;100539.86;126975;1312;108963;-73
2021/11/13 02:38:29;;;;;;;24.90;11.80;;;;;;;6.95;78.51;100544.77;126899;1313;108712;-74
2021/11/13 02:41:37;;;;;;;22.00;10.90;;;;;;;6.94;78.28;100549.42;126537;1310;106793;-74
2021/11/13 02:44:43;;;;;;;21.50;12.00;;;;;;;6.92;78.18;100544.45;126609;1312;107628;-75
2021/11/13 02:47:50;;;;;;;22.60;12.10;;;;;;;6.94;78.18;100543.63;126442;1313;107450;-75
2021/11/13 02:50:56;;;;;;;20.30;11.30;;;;;;;6.97;78.26;100533.77;126528;1313;108605;-75
2021/11/13 02:54:02;;;;;;;18.90;11.00;;;;;;;7.00;78.19;100523.83;126385;1313;107846;-75
2021/11/13 02:57:07;;;;;;;22.30;12.50;;;;;;;7.01;78.08;100517.86;126433;1315;108747;-74
2021/11/13 03:00:17;;;;;;;23.50;11.70;;;;;;;7.01;78.09;100523.39;126803;1307;108453;-75
2021/11/13 03:03:24;;;;;;;21.30;11.20;;;;;;;7.01;78.37;100519.15;126542;1307;108761;-74
2021/11/13 03:06:30;;;;;;;23.00;12.50;;;;;;;7.02;78.13;100508.63;126429;1314;107836;-74
2021/11/13 03:09:35;;;;;;;25.70;13.40;;;;;;;7.04;78.28;100501.40;126482;1307;108903;-74
2021/11/13 03:12:41;;;;;;;24.10;13.60;;;;;;;7.05;77.94;100498.98;126388;1315;107965;-74
2021/11/13 03:15:47;;;;;;;26.10;14.70;;;;;;;7.07;78.12;100494.38;126474;1307;108896;-74
2021/11/13 03:18:53;;;;;;;28.60;15.40;;;;;;;7.05;78.13;100491.92;126363;1315;108917;-75
2021/11/13 03:21:58;;;;;;;30.80;14.90;;;;;;;7.00;78.16;100499.55;126684;1307;108877;-75
2021/11/13 03:25:04;;;;;;;28.30;13.80;;;;;;;6.95;78.12;100499.70;126682;1312;107826;-74
2021/11/13 03:28:16;;;;;;;34.10;17.50;;;;;;;6.94;78.14;100495.16;126876;1308;108903;-75
2021/11/13 03:31:24;;;;;;;27.70;15.40;;;;;;;6.97;78.28;100490.10;126909;1309;109175;-75
2021/11/13 03:34:29;;;;;;;29.90;16.10;;;;;;;7.02;78.13;100487.08;126815;1313;108744;-78
2021/11/13 03:37:35;;;;;;;29.70;17.30;;;;;;;7.02;78.11;100476.98;126610;1312;107782;-78
2021/11/13 03:40:45;;;;;;;32.20;17.70;;;;;;;7.02;78.34;100476.61;126518;1315;107857;-76
2021/11/13 03:43:51;;;;;;;29.60;15.80;;;;;;;7.00;77.97;100484.73;126430;1315;107805;-77
2021/11/13 03:46:57;;;;;;;29.40;15.30;;;;;;;6.99;78.30;100482.52;126383;1313;108780;-77
2021/11/13 03:50:03;;;;;;;36.90;18.30;;;;;;;7.01;78.42;100476.52;126500;1314;108779;-76
2021/11/13 03:53:09;;;;;;;33.00;17.30;;;;;;;7.02;78.29;100483.68;126665;1312;108948;-77
2021/11/13 03:56:14;;;;;;;34.70;18.40;;;;;;;7.05;78.34;100483.63;126931;1309;108712;-77
2021/11/13 03:59:23;;;;;;;34.70;18.70;;;;;;;7.06;78.21;100478.20;126413;1312;107890;-74
2021/11/13 04:02:28;;;;;;;37.00;20.20;;;;;;;7.05;78.22;100470.92;126498;1309;108859;-74
2021/11/13 04:05:34;;;;;;;38.60;18.30;;;;;;;6.99;78.04;100460.36;126456;1309;107777;-77
2021/11/13 04:08:41;;;;;;;33.20;18.20;;;;;;;6.93;77.91;100455.22;126540;1315;107826;-73
2021/11/13 04:11:47;;;;;;;33.90;19.20;;;;;;;6.89;77.69;100453.27;126672;1314;108619;-77
2021/11/13 04:14:53;;;;;;;34.90;19.30;;;;;;;6.87;77.91;100457.61;126527;1310;107855;-78
2021/11/13 04:17:59;;;;;;;38.30;19.40;;;;;;;6.87;77.71;100463.70;126669;1315;108239;-80
2021/11/13 04:21:05;;;;;;;35.50;20.20;;;;;;;6.88;77.89;100467.30;126578;1315;107656;-78
2021/11/13 04:24:11;;;;;;;37.50;20.50;;;;;;;6.87;77.82;100460.13;126689;1309;107765;-81
2021/11/13 04:27:16;;;;;;;37.00;20.00;;;;;;;6.85;77.77;100457.27;126531;1309;107819;-79
2021/11/13 04:30:22;;;;;;;37.70;19.70;;;;;;;6.83;77.95;100457.29;126675;1309;108210;-80
2021/11/13 04:33:29;;;;;;;38.30;20.80;;;;;;;6.80;78.17;100461.09;126492;1309;106854;-77
2021/11/13 04:36:37;;;;;;;42.40;22.50;;;;;;;6.81;77.83;100473.38;126308;1307;239467;-77
2021/11/13 04:39:43;;;;;;;40.00;22.00;;;;;;;6.83;78.12;100479.16;126505;1310;107872;-77
2021/11/13 04:42:49;;;;;;;38.30;21.80;;;;;;;6.82;77.74;100478.20;126679;1307;107745;-83
2021/11/13 04:45:55;;;;;;;39.70;22.40;;;;;;;6.77;77.82;100476.50;126446;1312;108029;-77
2021/11/13 04:49:00;;;;;;;39.30;20.30;;;;;;;6.73;78.03;100480.89;126513;1309;108754;-77
2021/11/13 04:52:08;;;;;;;37.10;18.80;;;;;;;6.74;77.66;100481.19;126811;1309;107881;-77
2021/11/13 04:55:15;;;;;;;43.60;22.00;;;;;;;6.76;77.92;100476.95;126985;1312;107761;-78
2021/11/13 04:58:22;;;;;;;36.60;20.90;;;;;;;6.77;77.65;100476.33;127017;1310;107754;-81
2021/11/13 05:01:27;;;;;;;41.20;21.90;;;;;;;6.80;77.38;100478.26;127148;1313;109143;-78
2021/11/13 05:04:34;;;;;;;39.30;21.20;;;;;;;6.80;77.59;100467.79;127028;1312;108667;-77
2021/11/13 05:07:40;;;;;;;43.00;22.70;;;;;;;6.82;77.38;100469.04;126725;1310;108708;-78
2021/11/13 05:10:45;;;;;;;39.40;20.40;;;;;;;6.79;77.39;100470.71;126540;1313;107812;-77
2021/11/13 05:13:51;;;;;;;37.90;19.60;;;;;;;6.73;77.40;100470.13;126513;1309;108708;-78
2021/11/13 05:16:56;;;;;;;40.80;21.20;;;;;;;6.72;77.66;100462.80;126592;1312;107795;-77
2021/11/13 05:20:03;;;;;;;38.60;22.10;;;;;;;6.75;77.61;100461.67;126606;1309;108899;-77
2021/11/13 05:23:09;;;;;;;45.50;24.20;;;;;;;6.75;77.46;100469.62;127147;1309;107891;-77
2021/11/13 05:26:14;;;;;;;43.00;23.60;;;;;;;6.75;77.48;100467.82;127236;1309;107793;-76
2021/11/13 05:29:20;;;;;;;43.70;24.10;;;;;;;6.71;77.34;100465.67;126751;1313;107936;-77
2021/11/13 05:32:25;;;;;;;42.40;20.90;;;;;;;6.64;77.60;100459.86;126650;1309;107839;-79
2021/11/13 05:35:31;;;;;;;45.20;20.80;;;;;;;6.61;77.56;100450.59;126822;1309;107789;-78
2021/11/13 05:38:36;;;;;;;46.10;22.90;;;;;;;6.60;77.53;100455.19;126612;1312;107833;-76
2021/11/13 05:41:42;;;;;;;45.40;23.20;;;;;;;6.63;77.57;100464.52;126828;1309;108783;-77
2021/11/13 05:44:47;;;;;;;45.90;24.40;;;;;;;6.68;77.57;100469.28;126894;1312;108703;-77
2021/11/13 05:47:53;;;;;;;45.20;24.70;;;;;;;6.71;77.46;100468.36;126651;1309;107716;-76
2021/11/13 05:50:58;;;;;;;45.40;24.40;;;;;;;6.69;77.53;100475.69;126637;1315;108758;-79
2021/11/13 05:54:04;;;;;;;46.20;22.20;;;;;;;6.69;77.33;100459.99;126807;1313;108875;-77
2021/11/13 05:57:12;;;;;;;44.40;22.30;;;;;;;6.65;77.26;100455.73;126766;1315;108162;-79
2021/11/13 06:00:20;;;;;;;44.80;24.10;;;;;;;6.64;77.48;100452.98;126865;1309;107417;-81
2021/11/13 06:03:25;;;;;;;50.40;24.80;;;;;;;6.61;77.39;100459.58;126964;1309;107808;-80
2021/11/13 06:06:31;;;;;;;47.00;23.80;;;;;;;6.64;77.40;100438.11;126762;1312;107869;-77
2021/11/13 06:09:36;;;;;;;47.70;25.10;;;;;;;6.64;77.24;100446.63;127009;1309;107407;-77
2021/11/13 06:12:43;;;;;;;42.10;23.20;;;;;;;6.62;77.15;100473.13;127034;1309;107767;-77
2021/11/13 06:15:48;;;;;;;44.10;22.60;;;;;;;6.61;77.31;100482.73;127000;1315;109023;-77
2021/11/13 06:18:53;;;;;;;43.70;21.50;;;;;;;6.61;77.22;100489.76;127043;1309;107746;-77
2021/11/13 06:21:59;;;;;;;47.80;24.40;;;;;;;6.65;77.72;100489.98;126900;1313;107934;-77
2021/11/13 06:25:05;;;;;;;47.40;24.60;;;;;;;6.67;77.51;100498.65;126750;1309;107757;-76
2021/11/13 06:28:11;;;;;;;45.80;25.10;;;;;;;6.75;77.61;100506.42;126809;1309;107830;-76
2021/11/13 06:31:16;;;;;;;48.60;25.60;;;;;;;6.79;77.35;100505.73;126776;1312;108769;-76
2021/11/13 06:34:22;;;;;;;50.90;25.70;;;;;;;6.78;77.31;100504.34;126694;1309;107911;-74
2021/11/13 06:37:29;;;;;;;47.00;22.60;;;;;;;6.78;77.57;100499.06;126760;1312;108892;-77
2021/11/13 06:40:35;;;;;;;50.10;24.50;;;;;;;6.80;77.09;100497.73;126850;1316;108797;-75
2021/11/13 06:43:40;;;;;;;48.80;24.80;;;;;;;6.80;77.52;100493.80;127037;1312;108786;-76
2021/11/13 06:46:46;;;;;;;49.20;23.90;;;;;;;6.86;77.53;100489.57;126603;1309;108721;-76
2021/11/13 06:49:52;;;;;;;51.00;27.70;;;;;;;6.93;77.44;100485.13;126577;1309;107814;-81
2021/11/13 06:52:58;;;;;;;54.00;26.80;;;;;;;6.99;77.21;100493.29;126771;1309;107537;-83
2021/11/13 06:56:04;;;;;;;53.00;27.20;;;;;;;7.00;77.35;100487.70;126695;1309;106770;-84
2021/11/13 06:59:12;;;;;;;49.20;25.10;;;;;;;7.01;77.24;100486.60;126842;1313;108031;-83
2021/11/13 07:02:19;;;;;;;46.00;24.30;;;;;;;7.01;77.14;100492.11;126749;1313;108964;-83
2021/11/13 07:05:25;;;;;;;52.10;27.50;;;;;;;7.03;77.10;100490.67;126726;1310;108985;-82
2021/11/13 07:08:30;;;;;;;54.70;28.20;;;;;;;7.08;77.27;100493.09;126656;1309;107954;-82
2021/11/13 07:11:35;;;;;;;50.30;26.40;;;;;;;7.08;76.99;100491.52;126805;1309;108704;-84
2021/11/13 07:14:41;;;;;;;52.20;26.90;;;;;;;7.09;77.13;100495.85;127027;1309;108787;-84
2021/11/13 07:17:47;;;;;;;50.70;26.60;;;;;;;7.12;76.96;100503.24;127107;1312;108865;-80
2021/11/13 07:20:56;;;;;;;52.40;27.50;;;;;;;7.15;77.28;100506.57;126889;1309;107911;-86
2021/11/13 07:24:01;;;;;;;50.50;24.70;;;;;;;7.13;77.09;100501.55;126821;1309;107899;-83
2021/11/13 07:27:08;;;;;;;45.30;24.30;;;;;;;7.12;77.30;100495.65;127114;1307;107406;-82
2021/11/13 07:30:17;;;;;;;53.40;26.60;;;;;;;7.14;77.22;100499.54;127148;1309;107860;-85
2021/11/13 07:33:22;;;;;;;50.10;26.40;;;;;;;7.19;77.36;100499.66;126796;1309;108774;-80
2021/11/13 07:36:30;;;;;;;49.10;26.80;;;;;;;7.26;77.17;100499.63;127078;1308;107116;-83
2021/11/13 07:39:35;;;;;;;49.20;27.00;;;;;;;7.26;77.04;100493.73;126731;1313;108951;-73
2021/11/13 07:42:41;;;;;;;49.70;26.60;;;;;;;7.16;76.96;100492.25;126913;1309;107377;-74
2021/11/13 07:45:47;;;;;;;46.70;24.20;;;;;;;7.08;77.01;100485.35;127211;1312;108750;-74
2021/11/13 07:48:53;;;;;;;49.00;24.80;;;;;;;7.00;76.91;100482.94;126899;1312;108727;-73
2021/11/13 07:51:58;;;;;;;55.70;28.30;;;;;;;6.97;77.01;100486.79;126988;1309;108913;-75
2021/11/13 07:55:05;;;;;;;51.40;27.10;;;;;;;6.96;77.16;100485.58;126900;1309;106767;-75
2021/11/13 07:58:15;;;;;;;53.90;27.50;;;;;;;6.96;77.14;100481.53;126871;1312;107777;-74
2021/11/13 08:01:21;;;;;;;55.10;29.70;;;;;;;6.96;77.09;100473.58;126813;1307;108706;-74
2021/11/13 08:04:26;;;;;;;51.40;25.20;;;;;;;6.90;77.11;100475.46;126573;1309;108720;-74
2021/11/13 08:07:32;;;;;;;48.40;24.80;;;;;;;6.94;77.14;100468.11;126876;1309;107870;-74
2021/11/13 08:10:41;;;;;;;52.40;27.00;;;;;;;7.01;77.22;100457.08;126571;1309;108917;-75
2021/11/13 08:13:47;;;;;;;50.90;27.00;;;;;;;7.13;76.98;100460.02;126529;1309;108723;-74
2021/11/13 08:16:52;;;;;;;47.20;26.10;;;;;;;7.22;77.26;100460.30;126581;1312;108709;-74
2021/11/13 08:19:57;;;;;;;46.00;26.10;;;;;;;7.32;76.86;100463.34;126732;1309;109152;-74
2021/11/13 08:23:08;;;;;;;48.60;27.00;;;;;;;7.44;77.11;100453.13;126542;1310;107815;-75
2021/11/13 08:26:15;;;;;;;45.80;24.00;;;;;;;7.52;76.98;100464.25;126455;1309;109173;-82
2021/11/13 08:29:20;;;;;;;43.70;22.80;;;;;;;7.59;76.98;100463.80;126596;1309;107863;-81
2021/11/13 08:32:26;;;;;;;42.70;24.60;;;;;;;7.72;76.68;100461.51;126672;1309;107617;-82
2021/11/13 08:35:31;;;;;;;45.30;25.10;;;;;;;7.83;76.85;100466.17;126662;1309;107792;-81
2021/11/13 08:38:37;;;;;;;45.90;26.50;;;;;;;7.96;76.74;100466.53;126976;1309;107890;-81
2021/11/13 08:41:42;;;;;;;45.30;26.60;;;;;;;8.06;76.55;100470.48;126921;1308;107766;-82
2021/11/13 08:44:50;;;;;;;47.50;27.00;;;;;;;8.12;76.43;100470.63;126864;1309;107779;-82
2021/11/13 08:47:59;;;;;;;47.70;26.80;;;;;;;8.21;76.42;100465.80;126903;1308;107878;-84
2021/11/13 08:51:05;;;;;;;43.10;23.60;;;;;;;8.26;76.22;100466.23;126515;1309;107787;-84
2021/11/13 08:54:12;;;;;;;39.60;24.10;;;;;;;8.34;76.17;100463.45;126597;1310;107831;-87
2021/11/13 08:57:19;;;;;;;45.00;26.50;;;;;;;8.43;76.06;100462.80;126660;1310;106607;-82
2021/11/13 09:00:29;;;;;;;47.70;26.30;;;;;;;8.47;75.96;100466.25;126754;1308;107763;-81
2021/11/13 09:03:37;;;;;;;42.10;26.00;;;;;;;8.50;76.03;100467.58;126573;1309;108699;-80
2021/11/13 09:06:43;;;;;;;43.50;25.90;;;;;;;8.52;75.77;100471.30;126712;1309;107797;-77
2021/11/13 09:09:50;;;;;;;43.60;26.20;;;;;;;8.53;75.78;100472.23;126580;1309;107788;-82
2021/11/13 09:12:55;;;;;;;43.10;26.30;;;;;;;8.55;75.87;100469.23;126905;1309;107898;-80
2021/11/13 09:16:05;;;;;;;47.30;27.60;;;;;;;8.57;75.57;100466.40;126824;1308;108772;-81
2021/11/13 09:19:11;;;;;;;45.10;24.90;;;;;;;8.54;75.61;100464.51;126600;1310;107936;-80
2021/11/13 09:22:17;;;;;;;39.00;22.60;;;;;;;8.55;75.62;100456.14;126481;1309;107831;-79
2021/11/13 09:25:24;;;;;;;45.20;27.20;;;;;;;8.66;75.83;100453.57;126834;1310;109039;-80
2021/11/13 09:28:29;;;;;;;45.80;26.50;;;;;;;8.78;75.41;100456.20;126673;1309;107791;-84
2021/11/13 09:31:36;;;;;;;43.40;26.60;;;;;;;8.90;75.32;100448.40;126723;1313;108644;-80
2021/11/13 09:34:46;;;;;;;46.50;27.70;;;;;;;9.10;74.82;100446.11;127540;1309;107751;-81
2021/11/13 09:37:52;;;;;;;44.80;26.90;;;;;;;9.26;74.94;100443.63;127282;1309;109993;-82
2021/11/13 09:41:00;;;;;;;47.70;28.80;;;;;;;9.31;74.69;100448.81;126583;1308;108841;-83
2021/11/13 09:44:07;;;;;;;43.70;26.60;;;;;;;9.29;74.63;100440.66;126713;1309;108749;-81
2021/11/13 09:47:14;;;;;;;42.90;24.90;;;;;;;9.28;74.69;100434.95;126968;1309;108784;-80
2021/11/13 09:50:22;;;;;;;42.20;23.90;;;;;;;9.24;74.63;100430.63;126648;1309;108950;-82
2021/11/13 09:53:32;;;;;;;44.10;26.50;;;;;;;9.38;74.81;100432.02;127015;1309;108854;-79
2021/11/13 09:56:38;;;;;;;47.50;28.30;;;;;;;9.55;74.49;100431.90;126732;1309;108911;-88
2021/11/13 09:59:44;;;;;;;46.90;28.50;;;;;;;9.71;74.05;100428.45;126898;1307;108800;-87
2021/11/13 10:02:50;;;;;;;49.20;28.30;;;;;;;9.78;73.84;100428.48;126649;1309;106999;-88
2021/11/13 10:05:59;;;;;;;44.60;27.20;;;;;;;9.82;74.30;100428.59;126749;1313;108699;-87
2021/11/13 10:09:05;;;;;;;46.10;28.00;;;;;;;9.96;74.06;100423.45;126720;1308;108862;-83
2021/11/13 10:12:11;;;;;;;45.00;27.80;;;;;;;10.10;74.03;100427.23;126954;1310;108775;-83
2021/11/13 10:15:32;;;;;;;43.10;27.50;;;;;;;10.15;73.74;100424.31;127014;1309;108996;-80
2021/11/13 10:18:42;;;;;;;46.40;28.30;;;;;;;10.12;73.59;100418.40;127091;1308;108943;-78
2021/11/13 10:21:52;;;;;;;42.70;25.70;;;;;;;10.14;73.52;100416.52;127061;1307;109086;-81
2021/11/13 10:24:58;;;;;;;46.00;27.90;;;;;;;10.13;73.15;100413.29;127212;1312;107805;-79
2021/11/13 10:28:14;;;;;;;43.30;26.80;;;;;;;10.14;73.29;100414.58;126810;1311;108808;-78
2021/11/13 10:31:24;;;;;;;47.00;29.50;;;;;;;10.20;73.16;100412.79;126879;1308;108795;-83
2021/11/13 10:34:32;;;;;;;43.00;27.90;;;;;;;10.17;72.54;100417.02;127055;1309;107762;-83
2021/11/13 10:37:38;;;;;;;44.40;28.10;;;;;;;10.13;72.76;100414.55;126786;1314;108733;-81
2021/11/13 10:40:52;;;;;;;45.20;27.40;;;;;;;10.07;72.89;100406.06;126875;1309;107590;-80
2021/11/13 10:43:59;;;;;;;44.30;27.90;;;;;;;10.03;72.70;100401.09;127228;1308;108783;-80
2021/11/13 10:47:13;;;;;;;41.40;26.40;;;;;;;10.01;72.86;100399.64;127047;1309;108674;-82
2021/11/13 10:50:22;;;;;;;42.00;25.40;;;;;;;9.99;72.83;100399.28;127062;1308;108693;-84
2021/11/13 10:53:28;;;;;;;39.60;23.80;;;;;;;10.05;73.00;100398.24;126810;1309;108716;-84
2021/11/13 10:56:36;;;;;;;41.80;26.20;;;;;;;10.12;72.77;100398.24;126526;1309;108799;-86
2021/11/13 10:59:44;;;;;;;44.80;27.80;;;;;;;10.16;72.42;100400.00;127394;1312;107507;-81
2021/11/13 11:03:05;;;;;;;45.00;27.80;;;;;;;10.23;72.33;100399.71;126962;1309;108937;-79
2021/11/13 11:06:11;;;;;;;43.80;27.90;;;;;;;10.28;72.31;100393.81;126682;1309;108776;-84
2021/11/13 11:09:21;;;;;;;45.20;29.40;;;;;;;10.19;71.95;100394.77;127055;1309;105930;-78
2021/11/13 11:12:31;;;;;;;46.30;29.20;;;;;;;10.13;71.83;100392.33;126972;1309;108769;-79
2021/11/13 11:15:43;;;;;;;49.30;29.20;;;;;;;10.08;72.42;100393.50;126939;1309;107580;-77
2021/11/13 11:19:04;;;;;;;43.40;28.30;;;;;;;10.11;72.35;100388.77;127225;1309;107610;-77
2021/11/13 11:22:11;;;;;;;46.40;28.70;;;;;;;10.15;72.44;100391.20;126945;1309;108629;-78
2021/11/13 11:25:17;;;;;;;43.50;28.50;;;;;;;10.19;72.00;100386.71;126985;1309;109002;-79
2021/11/13 11:28:23;;;;;;;42.40;26.70;;;;;;;10.17;71.82;100387.81;126855;1309;108867;-79
2021/11/13 11:31:44;;;;;;;41.50;25.50;;;;;;;10.19;71.91;100386.55;126862;1308;109070;-80
2021/11/13 11:34:51;;;;;;;44.10;28.90;;;;;;;10.18;71.99;100382.01;126731;1309;108805;-78
2021/11/13 11:37:59;;;;;;;42.50;27.90;;;;;;;10.20;71.75;100381.31;126887;1309;108681;-79
2021/11/13 11:41:05;;;;;;;49.30;28.90;;;;;;;10.16;71.79;100375.13;126797;1312;108868;-78
2021/11/13 11:44:11;;;;;;;49.10;30.70;;;;;;;10.18;71.87;100378.85;126842;1309;108935;-79
2021/11/13 11:47:19;;;;;;;47.50;29.00;;;;;;;10.14;71.62;100377.23;126725;1311;109064;-80
2021/11/13 11:50:28;;;;;;;47.50;30.30;;;;;;;10.09;71.63;100379.93;126734;1312;108889;-80
2021/11/13 11:53:33;;;;;;;47.60;29.90;;;;;;;10.05;71.35;100374.06;126811;1312;107683;-80
2021/11/13 11:56:39;;;;;;;45.50;29.00;;;;;;;10.02;71.31;100370.95;126806;1310;109589;-79
2021/11/13 11:59:44;;;;;;;45.10;30.60;;;;;;;10.00;71.39;100372.06;126670;1312;108763;-81
2021/11/13 12:02:52;;;;;;;48.40;30.00;;;;;;;9.95;71.36;100372.52;126774;1310;108448;-82
2021/11/13 12:05:57;;;;;;;46.20;29.70;;;;;;;9.92;71.28;100373.89;126469;1312;108643;-84
2021/11/13 12:09:05;;;;;;;57.40;33.50;;;;;;;9.87;71.53;100372.02;126524;1310;109020;-83
2021/11/13 12:12:17;;;;;;;46.20;28.20;;;;;;;9.86;71.43;100373.03;126835;1309;105533;-78
2021/11/13 12:15:24;;;;;;;52.20;31.20;;;;;;;9.86;71.56;100371.61;126865;1309;107474;-79
2021/11/13 12:18:32;;;;;;;49.50;30.30;;;;;;;9.89;71.52;100370.14;126889;1309;107217;-75
2021/11/13 12:21:37;;;;;;;58.10;33.00;;;;;;;9.94;71.50;100370.70;128411;1309;108845;-77
2021/11/13 12:25:12;;;;;;;52.00;32.20;;;;;;;9.97;71.30;100369.26;127441;1309;108727;-76
2021/11/13 12:28:21;;;;;;;50.30;32.10;;;;;;;10.01;70.85;100366.61;127018;1309;108829;-77
2021/11/13 12:31:29;;;;;;;50.30;32.70;;;;;;;9.94;71.07;100365.90;127070;1309;108728;-78
2021/11/13 12:34:35;;;;;;;67.30;40.30;;;;;;;9.93;71.12;100364.57;127068;1310;108597;-78
2021/11/13 12:37:40;;;;;;;54.70;33.40;;;;;;;9.93;70.93;100361.84;126834;1309;145747;-78
2021/11/13 12:40:48;;;;;;;57.20;34.00;;;;;;;9.91;70.93;100361.35;126800;1309;108938;-78
2021/11/13 12:44:06;;;;;;;64.70;38.30;;;;;;;9.87;70.89;100360.52;126574;1309;108812;-78
2021/11/13 12:47:22;;;;;;;51.50;31.60;;;;;;;9.77;70.82;100360.33;126603;1313;107822;-78
2021/11/13 12:50:30;;;;;;;49.10;28.70;;;;;;;9.66;70.92;100361.59;126718;1309;107803;-76
2021/11/13 12:53:53;;;;;;;43.90;25.80;;;;;;;9.55;71.18;100359.11;126716;1310;108953;-78
2021/11/13 12:57:03;;;;;;;47.10;29.40;;;;;;;9.51;71.27;100362.09;126525;1310;108790;-82
2021/11/13 13:00:14;;;;;;;47.80;30.70;;;;;;;9.49;71.22;100359.61;126722;1309;108966;-82
2021/11/13 13:03:26;;;;;;;49.40;30.60;;;;;;;9.46;71.18;100359.92;126918;1308;107770;-85
2021/11/13 13:06:41;;;;;;;48.00;30.90;;;;;;;9.42;71.02;100354.75;126870;1308;107681;-83
2021/11/13 13:09:55;;;;;;;51.70;32.70;;;;;;;9.37;71.16;100355.10;126728;1309;109763;-84
2021/11/13 13:13:07;;;;;;;54.80;34.70;;;;;;;9.33;71.13;100353.98;126950;1312;109236;-85
2021/11/13 13:16:13;;;;;;;51.40;33.60;;;;;;;9.30;71.21;100347.90;126958;1312;109000;-83
2021/11/13 13:19:21;;;;;;;52.40;32.20;;;;;;;9.29;71.17;100345.02;126902;1309;108709;-85
2021/11/13 13:22:27;;;;;;;52.60;32.90;;;;;;;9.23;71.17;100346.20;126945;1311;108803;-79
2021/11/13 13:25:33;;;;;;;54.80;33.90;;;;;;;9.18;71.09;100344.05;127302;1309;107875;-81
2021/11/13 13:28:40;;;;;;;50.70;29.40;;;;;;;9.16;71.21;100347.61;127287;1301;108811;-83
2021/11/13 13:31:58;;;;;;;48.70;27.80;;;;;;;9.15;71.15;100345.34;127208;1309;107618;-81
2021/11/13 13:35:07;;;;;;;45.60;29.90;;;;;;;9.18;71.12;100351.88;126799;1305;108943;-76
2021/11/13 13:38:15;;;;;;;49.90;31.50;;;;;;;9.21;71.12;100344.59;126879;1309;108897;-78
2021/11/13 13:41:21;;;;;;;49.20;31.00;;;;;;;9.25;70.91;100343.40;127105;1309;108738;-78
2021/11/13 13:44:26;;;;;;;50.30;31.60;;;;;;;9.27;70.82;100344.27;127036;1305;108860;-77
2021/11/13 13:47:32;;;;;;;48.30;30.40;;;;;;;9.23;70.93;100344.95;126933;1309;108753;-79
2021/11/13 13:50:39;;;;;;;46.90;30.00;;;;;;;9.22;70.86;100344.20;126497;1309;109187;-78
2021/11/13 13:53:50;;;;;;;48.00;30.40;;;;;;;9.19;70.85;100346.78;126934;1309;105995;-77
2021/11/13 13:56:59;;;;;;;45.20;29.60;;;;;;;9.15;70.91;100345.60;126505;1310;108843;-74
2021/11/13 14:00:10;;;;;;;99.70;66.40;;;;;;;9.10;70.73;100347.96;127000;1309;107930;-77